^^
Saratoga-Weather Station Historical Data
Daily Summary for April 10, 2021 Units:  Metric    English   Both
Daily Weekly Monthly Yearly Custom
  High: Low: Average:
Temperature: 20.4 °C 14.7 °C 17.1 °C
Dew Point: 12.8 °C 10.4 °C 11.9 °C
Humidity: 87% 53% 72%
Wind Speed: 11.1km/h 0km/h 2.5km/h
Wind Gust: 24.1km/h - -
Wind- - South
Pressure: 1007.1 hPa 1000.7 hPa -
Precipitation: 0.5 mm    
Historical Graphs
 
 
Tabular Data for April 10, 2021
Time Temperature Dew Point Pressure Wind Wind Speed Wind Gust Humidity Rainfall Rate (Hourly) solar
00:04 18.1 °C 11.4 °C 1001.7 hPa South 1.4 km/h 3.2 km/h 65% 0.0 mm 0 W/m2
00:09 17.9 °C 11.2 °C 1002.0 hPa ESE 1.4 km/h 4.8 km/h 65% 0.0 mm 0 W/m2
00:14 17.9 °C 11 °C 1002.0 hPa ENE 4.7 km/h 4.8 km/h 64% 0.0 mm 0 W/m2
00:19 18 °C 11.1 °C 1002.0 hPa ENE 1.4 km/h 1.6 km/h 64% 0.0 mm 0 W/m2
00:24 18.1 °C 10.9 °C 1002.0 hPa ENE 7.9 km/h 12.9 km/h 63% 0.0 mm 0 W/m2
00:29 18.6 °C 10.4 °C 1002.0 hPa North 1.4 km/h 14.5 km/h 59% 0.0 mm 0 W/m2
00:34 19.4 °C 10.7 °C 1002.0 hPa NE 3.2 km/h 6.4 km/h 57% 0.0 mm 0 W/m2
00:39 19.8 °C 11 °C 1002.0 hPa NE 1.4 km/h 8 km/h 57% 0.0 mm 0 W/m2
00:44 19.9 °C 11.4 °C 1002.0 hPa SE 1.4 km/h 6.4 km/h 58% 0.0 mm 0 W/m2
00:49 19.8 °C 11.3 °C 1001.7 hPa Calm   1.6 km/h 58% 0.0 mm 0 W/m2
00:54 19.6 °C 12.1 °C 1001.4 hPa Calm   1.6 km/h 62% 0.0 mm 0 W/m2
00:59 19.2 °C 12 °C 1001.4 hPa Calm   3.2 km/h 63% 0.0 mm 0 W/m2
01:04 18.8 °C 11.1 °C 1001.0 hPa Calm   3.2 km/h 61% 0.0 mm 0 W/m2
01:09 18.7 °C 11.8 °C 1001.0 hPa WSW 1.4 km/h 3.2 km/h 64% 0.0 mm 0 W/m2
01:14 18.5 °C 11.6 °C 1000.7 hPa ESE 1.4 km/h 4.8 km/h 64% 0.0 mm 0 W/m2
01:19 18.4 °C 11.5 °C 1000.7 hPa ESE 1.4 km/h 1.6 km/h 64% 0.0 mm 0 W/m2
01:24 18.4 °C 11.5 °C 1000.7 hPa ESE 1.4 km/h 1.6 km/h 64% 0.0 mm 0 W/m2
01:29 18.3 °C 11.4 °C 1000.7 hPa Calm     64% 0.0 mm 0 W/m2
01:34 18.2 °C 11.5 °C 1000.7 hPa ESE 1.4 km/h 3.2 km/h 65% 0.0 mm 0 W/m2
01:39 18.1 °C 11.9 °C 1001.0 hPa Calm   3.2 km/h 67% 0.0 mm 0 W/m2
01:44 17.8 °C 11.6 °C 1001.0 hPa Calm   1.6 km/h 67% 0.0 mm 0 W/m2
01:49 17.7 °C 11.5 °C 1001.0 hPa East 4.7 km/h 6.4 km/h 67% 0.0 mm 0 W/m2
01:54 17.8 °C 11.6 °C 1001.4 hPa Calm   1.6 km/h 67% 0.0 mm 0 W/m2
01:59 17.8 °C 11.4 °C 1001.4 hPa East 1.4 km/h 6.4 km/h 66% 0.0 mm 0 W/m2
02:04 17.9 °C 11.7 °C 1001.0 hPa East 1.4 km/h 1.6 km/h 67% 0.0 mm 0 W/m2
02:09 17.8 °C 12 °C 1001.4 hPa East 1.4 km/h 6.4 km/h 69% 0.0 mm 0 W/m2
02:14 17.7 °C 12.4 °C 1001.0 hPa Calm     71% 0.0 mm 0 W/m2
02:19 17.4 °C 12.5 °C 1001.4 hPa Calm   4.8 km/h 73% 0.0 mm 0 W/m2
02:24 17.1 °C 12.6 °C 1001.4 hPa SSW 1.4 km/h 6.4 km/h 75% 0.0 mm 0 W/m2
02:29 17.3 °C 12.4 °C 1001.4 hPa North 4.7 km/h 6.4 km/h 73% 0.0 mm 0 W/m2
02:34 17.9 °C 11.9 °C 1001.4 hPa NNW 1.4 km/h 6.4 km/h 68% 0.0 mm 0 W/m2
02:39 18.4 °C 11.9 °C 1001.0 hPa West 3.2 km/h 6.4 km/h 66% 0.0 mm 0 W/m2
02:44 18.5 °C 12.5 °C 1001.0 hPa Calm   3.2 km/h 68% 0.0 mm 0 W/m2
02:49 18.3 °C 12.3 °C 1001.0 hPa NNW 4.7 km/h 4.8 km/h 68% 0.0 mm 0 W/m2
02:54 18.3 °C 11.6 °C 1000.7 hPa SE 1.4 km/h 8 km/h 65% 0.0 mm 0 W/m2
02:59 18.7 °C 11.3 °C 1000.7 hPa North 1.4 km/h 12.9 km/h 62% 0.0 mm 0 W/m2
03:04 19.1 °C 11.4 °C 1000.7 hPa ENE 3.2 km/h 4.8 km/h 61% 0.0 mm 0 W/m2
03:09 19.4 °C 11.2 °C 1000.7 hPa NE 4.7 km/h 6.4 km/h 59% 0.0 mm 0 W/m2
03:14 19.7 °C 10.9 °C 1000.7 hPa NNW 3.2 km/h 6.4 km/h 57% 0.0 mm 0 W/m2
03:19 19.9 °C 10.9 °C 1000.7 hPa NE 1.4 km/h 8 km/h 56% 0.0 mm 0 W/m2
03:24 20.1 °C 10.8 °C 1000.7 hPa NW 1.4 km/h 12.9 km/h 55% 0.0 mm 0 W/m2
03:29 20.3 °C 11 °C 1000.7 hPa NW 3.2 km/h 8 km/h 55% 0.0 mm 0 W/m2
03:34 20.3 °C 10.7 °C 1000.7 hPa NE 1.4 km/h 3.2 km/h 54% 0.0 mm 0 W/m2
03:39 20.4 °C 10.8 °C 1000.7 hPa NNW 4.7 km/h 11.3 km/h 54% 0.0 mm 0 W/m2
03:45 20.4 °C 10.8 °C 1001.0 hPa North 3.2 km/h 6.4 km/h 54% 0.0 mm 0 W/m2
03:50 20.4 °C 10.5 °C 1001.0 hPa NNW 6.4 km/h 8 km/h 53% 0.0 mm 0 W/m2
03:55 20.4 °C 10.5 °C 1001.4 hPa NNW 7.9 km/h 12.9 km/h 53% 0.0 mm 0 W/m2
04:00 20.4 °C 10.5 °C 1001.4 hPa SW 3.2 km/h 8 km/h 53% 0.0 mm 0 W/m2
04:05 20.4 °C 10.8 °C 1001.4 hPa NNW 1.4 km/h 4.8 km/h 54% 0.0 mm 0 W/m2
04:10 20.3 °C 10.7 °C 1001.4 hPa WNW 4.7 km/h 9.7 km/h 54% 0.0 mm 0 W/m2
04:15 20.2 °C 10.9 °C 1001.4 hPa North 4.7 km/h 14.5 km/h 55% 0.0 mm 0 W/m2
04:20 20.1 °C 11 °C 1001.4 hPa ENE 4.7 km/h 8 km/h 56% 0.0 mm 0 W/m2
04:25 19.9 °C 10.9 °C 1001.4 hPa NNW 1.4 km/h 14.5 km/h 56% 0.0 mm 0 W/m2
04:30 19.8 °C 11 °C 1001.4 hPa West 4.7 km/h 9.7 km/h 57% 0.0 mm 0 W/m2
04:35 19.7 °C 10.9 °C 1001.7 hPa North 1.4 km/h 4.8 km/h 57% 0.0 mm 0 W/m2
04:40 19.5 °C 11.3 °C 1001.7 hPa NNE 3.2 km/h 8 km/h 59% 0.0 mm 0 W/m2
04:45 19.4 °C 11.4 °C 1001.7 hPa NNW 6.4 km/h 6.4 km/h 60% 0.0 mm 0 W/m2
04:50 19.1 °C 11.4 °C 1002.0 hPa Calm   9.7 km/h 61% 0.0 mm 0 W/m2
04:55 18.9 °C 11.5 °C 1002.0 hPa West 1.4 km/h 6.4 km/h 62% 0.0 mm 0 W/m2
05:00 18.8 °C 11.6 °C 1002.4 hPa Calm   9.7 km/h 63% 0.0 mm 0 W/m2
05:05 18.7 °C 12 °C 1002.4 hPa NW 4.7 km/h 6.4 km/h 65% 0.0 mm 0 W/m2
05:10 18.4 °C 12.2 °C 1002.7 hPa NW 4.7 km/h 9.7 km/h 67% 0.0 mm 0 W/m2
05:15 18.1 °C 12.1 °C 1002.7 hPa WNW 11.1 km/h 24.1 km/h 68% 0.0 mm 0 W/m2
05:20 17.4 °C 12.3 °C 1002.4 hPa NW 6.4 km/h 19.3 km/h 72% 0.2 mm 0 W/m2
05:25 17.1 °C 12.4 °C 1002.4 hPa NNW 3.2 km/h 6.4 km/h 74% 0.2 mm 0 W/m2
05:30 16.7 °C 12.4 °C 1002.4 hPa Calm   19.3 km/h 76% 0.2 mm 0 W/m2
05:35 16.5 °C 12.5 °C 1002.7 hPa NNW 3.2 km/h 3.2 km/h 77% 0.2 mm 0 W/m2
05:40 16.3 °C 12.5 °C 1002.7 hPa Calm   8 km/h 78% 0.2 mm 0 W/m2
05:45 16.2 °C 12.4 °C 1002.7 hPa NNE 3.2 km/h 6.4 km/h 78% 0.2 mm 0 W/m2
05:50 16.2 °C 12.4 °C 1002.7 hPa ENE 4.7 km/h 6.4 km/h 78% 0.2 mm 0 W/m2
05:55 16.2 °C 12.6 °C 1002.7 hPa ENE 3.2 km/h 6.4 km/h 79% 0.2 mm 0 W/m2
06:00 16.1 °C 12.5 °C 1002.7 hPa NNE 1.4 km/h 4.8 km/h 79% 0.2 mm 0 W/m2
06:05 16 °C 12.4 °C 1003.0 hPa Calm   1.6 km/h 79% 0.2 mm 0 W/m2
06:10 16 °C 12.4 °C 1003.0 hPa Calm   4.8 km/h 79% 0.2 mm 0 W/m2
06:15 15.9 °C 12.3 °C 1003.0 hPa South 3.2 km/h 4.8 km/h 79% 0.2 mm 0 W/m2
06:20 15.9 °C 12.3 °C 1003.0 hPa SE 4.7 km/h 4.8 km/h 79% 0.0 mm 0 W/m2
06:25 15.9 °C 12.3 °C 1003.0 hPa North 3.2 km/h 3.2 km/h 79% 0.0 mm 5 W/m2
06:30 15.8 °C 12.4 °C 1003.4 hPa North 1.4 km/h 3.2 km/h 80% 0.0 mm 0 W/m2
06:35 15.8 °C 12.5 °C 1003.4 hPa ENE 1.4 km/h 4.8 km/h 81% 0.0 mm 0 W/m2
06:40 15.7 °C 12.3 °C 1003.0 hPa Calm   3.2 km/h 80% 0.0 mm 5 W/m2
06:45 15.7 °C 12.4 °C 1003.0 hPa ENE 4.7 km/h 6.4 km/h 81% 0.0 mm 5 W/m2
06:50 15.7 °C 12.4 °C 1003.0 hPa East 1.4 km/h 1.6 km/h 81% 0.0 mm 9 W/m2
06:55 15.6 °C 12.4 °C 1003.4 hPa East 6.4 km/h 6.4 km/h 81% 0.0 mm 9 W/m2
07:00 15.6 °C 12.4 °C 1003.4 hPa ENE 1.4 km/h 8 km/h 81% 0.0 mm 11 W/m2
07:05 15.6 °C 12.4 °C 1003.0 hPa Calm   4.8 km/h 81% 0.0 mm 21 W/m2
07:10 15.6 °C 12.4 °C 1003.4 hPa NE 1.4 km/h 1.6 km/h 81% 0.0 mm 37 W/m2
07:15 15.6 °C 12.5 °C 1003.7 hPa Calm   1.6 km/h 82% 0.0 mm 51 W/m2
07:20 15.6 °C 12.5 °C 1003.7 hPa Calm   1.6 km/h 82% 0.0 mm 53 W/m2
07:25 15.6 °C 12.4 °C 1004.1 hPa Calm   1.6 km/h 81% 0.0 mm 47 W/m2
07:30 15.6 °C 12.5 °C 1003.7 hPa NNW 1.4 km/h 3.2 km/h 82% 0.0 mm 69 W/m2
07:35 15.7 °C 12.4 °C 1003.7 hPa Calm   3.2 km/h 81% 0.0 mm 95 W/m2
07:40 15.7 °C 12.4 °C 1004.1 hPa Calm   1.6 km/h 81% 0.0 mm 72 W/m2
07:45 15.8 °C 12.4 °C 1004.1 hPa Calm   3.2 km/h 80% 0.0 mm 83 W/m2
07:50 15.8 °C 12.4 °C 1004.4 hPa Calm   3.2 km/h 80% 0.0 mm 70 W/m2
07:55 15.9 °C 12.5 °C 1004.1 hPa NNE 3.2 km/h 4.8 km/h 80% 0.0 mm 60 W/m2
08:01 15.9 °C 12.3 °C 1003.7 hPa WNW 1.4 km/h 4.8 km/h 79% 0.0 mm 86 W/m2
08:06 16 °C 12.2 °C 1004.1 hPa East 4.7 km/h 4.8 km/h 78% 0.0 mm 49 W/m2
08:11 16 °C 12.2 °C 1004.1 hPa Calm   3.2 km/h 78% 0.0 mm 49 W/m2
08:16 16 °C 12.2 °C 1004.1 hPa Calm   4.8 km/h 78% 0.0 mm 46 W/m2
08:21 15.9 °C 12.3 °C 1004.4 hPa NNW 4.7 km/h 9.7 km/h 79% 0.0 mm 67 W/m2
08:26 15.9 °C 12.3 °C 1004.7 hPa NE 3.2 km/h 4.8 km/h 79% 0.0 mm 91 W/m2
08:31 15.9 °C 12.3 °C 1005.1 hPa NNE 3.2 km/h 9.7 km/h 79% 0.0 mm 90 W/m2
08:36 15.9 °C 12.1 °C 1005.1 hPa NE 3.2 km/h 6.4 km/h 78% 0.0 mm 67 W/m2
08:41 15.9 °C 12.3 °C 1005.1 hPa NNW 1.4 km/h 8 km/h 79% 0.0 mm 118 W/m2
08:46 15.9 °C 12.3 °C 1005.1 hPa NW 1.4 km/h 4.8 km/h 79% 0.0 mm 111 W/m2
08:51 15.9 °C 12.1 °C 1005.1 hPa West 3.2 km/h 12.9 km/h 78% 0.0 mm 102 W/m2
08:56 15.9 °C 12.1 °C 1005.4 hPa NE 1.4 km/h 9.7 km/h 78% 0.0 mm 171 W/m2
09:01 15.9 °C 12.1 °C 1005.4 hPa Calm   6.4 km/h 78% 0.0 mm 149 W/m2
09:06 15.9 °C 12.1 °C 1005.8 hPa NW 7.9 km/h 16.1 km/h 78% 0.0 mm 67 W/m2
09:11 15.8 °C 11.8 °C 1005.8 hPa WNW 7.9 km/h 9.7 km/h 77% 0.0 mm 79 W/m2
09:16 15.8 °C 12 °C 1005.8 hPa WNW 7.9 km/h 12.9 km/h 78% 0.0 mm 79 W/m2
09:21 15.7 °C 12.1 °C 1005.4 hPa NNW 4.7 km/h 4.8 km/h 79% 0.0 mm 142 W/m2
09:26 15.6 °C 12.2 °C 1005.4 hPa NNE 1.4 km/h 4.8 km/h 80% 0.0 mm 181 W/m2
09:31 15.5 °C 12.3 °C 1005.8 hPa NE 1.4 km/h 12.9 km/h 81% 0.0 mm 137 W/m2
09:36 15.4 °C 12.3 °C 1005.8 hPa North 1.4 km/h 4.8 km/h 82% 0.2 mm 121 W/m2
09:41 15.2 °C 12.3 °C 1006.1 hPa Calm   6.4 km/h 83% 0.2 mm 63 W/m2
09:46 15.1 °C 12.4 °C 1006.1 hPa NW 4.7 km/h 8 km/h 84% 0.2 mm 49 W/m2
09:51 15 °C 12.5 °C 1006.1 hPa Calm   6.4 km/h 85% 0.2 mm 72 W/m2
09:56 14.9 °C 12.4 °C 1006.1 hPa NW 1.4 km/h 8 km/h 85% 0.2 mm 107 W/m2
10:01 14.9 °C 12.6 °C 1006.1 hPa NW 4.7 km/h 4.8 km/h 86% 0.2 mm 102 W/m2
10:06 14.8 °C 12.5 °C 1006.1 hPa NW 1.4 km/h 4.8 km/h 86% 0.2 mm 90 W/m2
10:11 14.8 °C 12.5 °C 1006.4 hPa NNW 3.2 km/h 3.2 km/h 86% 0.2 mm 104 W/m2
10:16 14.9 °C 12.6 °C 1006.4 hPa WNW 3.2 km/h 6.4 km/h 86% 0.2 mm 102 W/m2
10:21 14.8 °C 12.5 °C 1006.4 hPa NW 6.4 km/h 11.3 km/h 86% 0.2 mm 125 W/m2
10:26 14.8 °C 12.5 °C 1006.4 hPa NNW 1.4 km/h 3.2 km/h 86% 0.2 mm 128 W/m2
10:31 14.9 °C 12.8 °C 1006.4 hPa NW 1.4 km/h 3.2 km/h 87% 0.2 mm 156 W/m2
10:36 14.9 °C 12.6 °C 1006.8 hPa NNW 6.4 km/h 6.4 km/h 86% 0.0 mm 153 W/m2
10:41 15 °C 12.7 °C 1006.8 hPa NNE 1.4 km/h 6.4 km/h 86% 0.0 mm 135 W/m2
10:46 15 °C 12.5 °C 1006.8 hPa NNW 4.7 km/h 11.3 km/h 85% 0.0 mm 84 W/m2
10:51 14.9 °C 12.4 °C 1006.4 hPa NNE 1.4 km/h 4.8 km/h 85% 0.0 mm 90 W/m2
10:56 14.9 °C 12.4 °C 1006.8 hPa NW 4.7 km/h 4.8 km/h 85% 0.0 mm 98 W/m2
11:01 14.9 °C 12.4 °C 1006.8 hPa Calm   3.2 km/h 85% 0.0 mm 77 W/m2
11:06 14.8 °C 12.3 °C 1007.1 hPa NW 1.4 km/h 11.3 km/h 85% 0.0 mm 37 W/m2
11:11 14.8 °C 12.3 °C 1007.1 hPa NW 3.2 km/h 4.8 km/h 85% 0.0 mm 90 W/m2
11:16 14.7 °C 12.2 °C 1007.1 hPa NNE 4.7 km/h 6.4 km/h 85% 0.0 mm 56 W/m2
11:21 14.7 °C 12.2 °C 1006.8 hPa NE 4.7 km/h 8 km/h 85% 0.0 mm 88 W/m2
11:26 14.7 °C 12.4 °C 1006.8 hPa NNE 1.4 km/h 6.4 km/h 86% 0.0 mm 135 W/m2
11:32 14.7 °C 12.4 °C 1006.8 hPa NNW 1.4 km/h 3.2 km/h 86% 0.0 mm 111 W/m2
11:37 14.7 °C 12.2 °C 1007.1 hPa NNE 1.4 km/h 4.8 km/h 85% 0.0 mm 98 W/m2
Juneau County Weather
Compliments of Weather Underground - 2 mb